Airfield :
LOGIN :

Register | Disclaimer

   EN    FR    IT 

 










Legend :    VFR   Marginal VFR   IFR   Intensive IFR   Very Intensive IFR
Visi :
Ceiling :
>= 8 km
>= 3000ft
5 to 8 km
1000 to 3000 ft
1500m to 5 km
500 to 1000 ft
800 to 1500m
200 to 500 ft
< 800m
< 200 ft
Symbols :   Thunderstorms  Fog  Heavy snow  Heavy precipitations  Wind > 20 kt
SIGMETs :     Misc.  Thunderstorms  Icing  Turbulence  Mountain Waves  Volcanic Ashes






- Airport Elevation : 1516 ft
- IATA code : AGB


EDMA - Augsburg

CURRENT METAR :
  • 282020Z AUTO 06003KT 9999 FEW094/// 08/05 Q1016

EXPIRED METARs :
  • 281950Z AUTO 05002KT 9999 FEW072/// BKN094/// 09/06 Q1017
  • 281920Z AUTO VRB02KT 9999 FEW069/// BKN093/// 11/06 Q1016
  • 281850Z 32003KT CAVOK 13/03 Q1016
  • 281820Z 34004KT CAVOK 13/03 Q1017
  • 281750Z 33005KT CAVOK 15/03 Q1017

TAF TAF EDMA
Valid from the 28 at 18:00 until the 29 at 03:00 UTC


281700Z 2818/2903 32007KT CAVOK
BECMG 2819/2821 04003KT



MET'MAP, your aeronautical weather chart ! - Copyright ORBIFLY December 2007 - Disclaimer

ORBIFLY MET'MAP TEAM :

Programming & Development : Alexandra Zaïnal
Original concept : Baudouin d'Aumeries
Technical & hardware support : Manuel Goepfert
Assistance : Marc-Olivier Méhu

Contact : metmap@orbifly.com




SOURCES & CREDITS :

   NOAA